Airfield :







YOU CAN JOIN US ON...

 
LOGIN :

Register | Disclaimer

   EN    FR    IT 

 









Legend :    VFR   Marginal VFR   IFR   Intensive IFR   Very Intensive IFR
Visi :
Ceiling :
>= 8 km
>= 3000ft
5 to 8 km
1000 to 3000 ft
1500m to 5 km
500 to 1000 ft
800 to 1500m
200 to 500 ft
< 800m
< 200 ft
Symbols :   Thunderstorms  Fog  Heavy snow  Heavy precipitations  Wind > 20 kt






- Airport Elevation : 14 ft
- IATA code : UVF


TLPL - Hewanorra Int.

CURRENT METAR :
  • 231600Z 09015KT 9999 FEW026 32/25 Q1015 NOSIG

EXPIRED METARs :
  • 231500Z 10011KT 9999 FEW026 SCT045 31/26 Q1016 NOSIG
  • 231400Z 09012KT 9999 VCSH FEW025 SCT044 30/26 Q1016 NOSIG
  • 231300Z 09011KT 9999 FEW027 29/24 Q1015 NOSIG
  • 231200Z 13006KT 9999 FEW012 BKN042 26/25 Q1015 NOSIG

TAF TLPL
Valid from the 23 at 12:00 until the 24 at 12:00 UTC


231100Z 2312/2412 11016KT 9999 SCCT025 SCT040
TEMPO 2315/2406 5000 SHRA BKN015 BKN040
TTZP FIR / North America



MET'MAP, your aeronautical weather chart ! - Copyright ORBIFLY December 2007 - Disclaimer

ORBIFLY MET'MAP TEAM :

Programming & Development : Alexandra Zaïnal
Original concept : Baudouin d'Aumeries
Technical & hardware support : Manuel Goepfert
Assistance : Marc-Olivier Méhu




SOURCES & CREDITS :

   NOAA